Time;durP1;ratioP1;P1;durP2;ratioP2;P2;SDS_P1;SDS_P2;PMS_P1;PMS_P2;Temp;Humidity;BMP_temperature;BMP_pressure;BME280_temperature;BME280_humidity;BME280_pressure;Samples;Min_cycle;Max_cycle;Signal;HPM_P1;HPM_P2
2024/02/21 00:00:50;;;;;;;;;2.00;1.00;;;;;22.74;44.77;102301.13;6400854;22;45182;-76
2024/02/21 00:03:15;;;;;;;;;1.33;1.33;;;;;22.80;44.06;102311.13;6400799;22;45280;-75
2024/02/21 00:05:40;;;;;;;;;2.00;2.00;;;;;22.78;44.14;102296.31;6371845;22;45280;-75
2024/02/21 00:08:06;;;;;;;;;4.00;1.00;;;;;22.73;44.28;102284.34;6399912;22;49393;-75
2024/02/21 00:10:32;;;;;;;;;1.00;1.00;;;;;22.83;44.64;102288.75;6400152;22;45270;-75
2024/02/21 00:12:59;;;;;;;;;4.33;2.00;;;;;22.73;44.22;102264.94;6400473;22;45254;-75
2024/02/21 00:15:24;;;;;;;;;6.00;3.00;;;;;22.82;44.63;102269.34;6400577;22;45398;-75
2024/02/21 00:17:49;;;;;;;;;1.00;1.00;;;;;22.81;44.50;102254.41;6400419;22;46045;-75
2024/02/21 00:20:15;;;;;;;;;1.00;1.00;;;;;22.80;44.04;102251.91;6400385;22;45267;-74
2024/02/21 00:22:40;;;;;;;;;3.00;1.67;;;;;22.78;44.50;102246.75;6400098;22;49051;-75
2024/02/21 00:25:06;;;;;;;;;3.00;1.00;;;;;22.78;44.61;102249.41;6400740;22;45152;-75
2024/02/21 00:27:32;;;;;;;;;1.33;1.00;;;;;22.77;44.01;102239.75;6400165;22;46074;-75
2024/02/21 00:29:57;;;;;;;;;0.67;0.67;;;;;22.77;44.29;102236.31;6399727;22;45281;-76
2024/02/21 00:32:22;;;;;;;;;3.33;1.00;;;;;22.76;44.40;102229.31;6400150;22;45220;-75
2024/02/21 00:34:48;;;;;;;;;3.00;2.00;;;;;22.74;44.21;102230.28;6400244;22;55241;-76
2024/02/21 00:37:13;;;;;;;;;5.00;2.00;;;;;22.76;44.07;102226.66;6399608;22;47821;-75
2024/02/21 00:39:38;;;;;;;;;1.00;1.00;;;;;22.69;44.52;102202.53;6371691;22;45244;-76
2024/02/21 00:42:04;;;;;;;;;1.33;1.33;;;;;22.74;43.94;102213.56;6400677;22;45236;-76
2024/02/21 00:44:29;;;;;;;;;1.67;1.00;;;;;22.73;44.40;102217.19;6400542;22;45473;-75
2024/02/21 00:46:55;;;;;;;;;1.67;1.33;;;;;22.71;44.58;102212.03;6399871;22;57125;-76
2024/02/21 00:49:20;;;;;;;;;2.00;1.00;;;;;22.60;44.47;102191.00;6400206;22;45807;-76
2024/02/21 00:51:45;;;;;;;;;2.00;0.33;;;;;22.66;43.85;102201.03;6399759;22;50465;-75
2024/02/21 00:54:11;;;;;;;;;3.00;1.00;;;;;22.70;44.33;102206.88;6400710;22;45290;-75
2024/02/21 00:56:36;;;;;;;;;0.00;0.00;;;;;22.55;44.49;102180.84;6399990;22;47052;-76
2024/02/21 00:59:01;;;;;;;;;2.33;1.00;;;;;22.69;44.37;102192.72;6399941;22;55519;-75
2024/02/21 01:01:27;;;;;;;;;2.00;2.00;;;;;22.58;44.38;102150.53;6400762;22;45322;-75
2024/02/21 01:03:55;;;;;;;;;2.00;2.00;;;;;22.69;43.83;102160.09;6400606;22;45453;-75
2024/02/21 01:06:21;;;;;;;;;1.00;1.00;;;;;22.70;43.85;102162.59;6399448;22;45992;-76
2024/02/21 01:08:47;;;;;;;;;3.00;2.00;;;;;22.63;43.88;102178.28;6399698;22;45351;-76
2024/02/21 01:11:13;;;;;;;;;1.00;1.00;;;;;22.71;43.86;102171.41;6400211;22;45172;-75
2024/02/21 01:13:39;;;;;;;;;1.00;1.00;;;;;22.72;43.94;102178.38;6400609;22;45276;-75
2024/02/21 01:16:06;;;;;;;;;1.00;1.00;;;;;22.70;43.82;102177.69;6400560;22;45948;-76
2024/02/21 01:18:31;;;;;;;;;2.00;2.00;;;;;22.71;43.87;102184.69;6400036;22;45349;-75
2024/02/21 01:20:56;;;;;;;;;1.00;1.00;;;;;22.70;43.97;102170.56;6399983;22;45312;-75
2024/02/21 01:23:22;;;;;;;;;1.00;1.00;;;;;22.69;44.14;102179.47;6400238;22;45441;-76
2024/02/21 01:25:47;;;;;;;;;1.67;1.67;;;;;22.70;44.00;102167.91;6400024;22;50455;-75
2024/02/21 01:28:12;;;;;;;;;0.67;0.67;;;;;22.63;43.93;102174.78;6399774;22;57869;-76
2024/02/21 01:30:37;;;;;;;;;1.00;1.00;;;;;22.43;44.14;102132.50;6400644;22;45417;-75
2024/02/21 01:33:03;;;;;;;;;1.00;1.00;;;;;22.69;44.24;102168.84;6400499;22;45418;-75
2024/02/21 01:35:29;;;;;;;;;2.33;2.33;;;;;22.59;44.11;102154.84;6399479;22;45918;-75
2024/02/21 01:37:54;;;;;;;;;1.00;1.00;;;;;22.66;43.58;102163.03;6399995;22;45214;-76
2024/02/21 01:40:19;;;;;;;;;1.00;1.00;;;;;22.68;43.76;102155.75;6400523;22;45275;-76
2024/02/21 01:42:45;;;;;;;;;5.00;1.33;;;;;22.54;43.91;102136.75;6399854;22;45434;-76
2024/02/21 01:45:10;;;;;;;;;2.67;1.00;;;;;22.65;44.14;102146.28;6400232;22;45288;-75
2024/02/21 01:47:37;;;;;;;;;1.00;1.00;;;;;22.65;44.20;102140.16;6400041;22;45238;-75
2024/02/21 01:50:03;;;;;;;;;1.00;1.00;;;;;22.65;43.71;102142.78;6399969;22;45279;-75
2024/02/21 01:52:30;;;;;;;;;1.00;1.00;;;;;22.64;43.91;102141.94;6400325;22;45328;-75
2024/02/21 01:54:57;;;;;;;;;1.00;1.00;;;;;22.63;43.99;102135.84;6399666;22;46536;-75
2024/02/21 01:57:22;;;;;;;;;2.00;1.00;;;;;22.53;43.95;102100.59;6399712;22;45249;-76
2024/02/21 01:59:48;;;;;;;;;2.00;1.00;;;;;22.58;43.77;102106.28;6399809;22;45364;-76
2024/02/21 02:02:13;;;;;;;;;2.33;0.00;;;;;22.61;43.67;102108.59;6400531;22;45397;-75
2024/02/21 02:04:39;;;;;;;;;3.33;1.00;;;;;22.60;44.14;102093.69;6399271;22;46211;-76
2024/02/21 02:07:06;;;;;;;;;0.33;0.33;;;;;22.62;43.65;102085.56;6399537;22;45341;-76
2024/02/21 02:09:32;;;;;;;;;1.00;1.00;;;;;22.55;44.28;102074.75;6399758;22;45278;-75
2024/02/21 02:11:58;;;;;;;;;2.00;2.00;;;;;22.41;44.31;102052.25;6399667;22;45478;-75
2024/02/21 02:14:25;;;;;;;;;2.00;2.00;;;;;22.54;43.77;102067.78;6399883;22;46854;-76
2024/02/21 02:16:50;;;;;;;;;2.67;2.00;;;;;22.62;44.02;102078.47;6399726;22;45245;-76
2024/02/21 02:19:15;;;;;;;;;1.00;1.00;;;;;22.63;43.47;102085.44;6370611;22;48444;-76
2024/02/21 02:21:46;;;;;;;;;1.00;1.00;;;;;22.54;44.01;102073.09;6399789;22;45405;-75
2024/02/21 02:24:14;;;;;;;;;1.00;1.00;;;;;22.64;44.05;102083.59;6399506;22;47035;-76
2024/02/21 02:26:39;;;;;;;;;1.67;1.00;;;;;22.65;43.46;102081.78;6400032;22;45221;-75
2024/02/21 02:29:04;;;;;;;;;1.00;1.00;;;;;22.62;43.17;102072.31;6399652;22;45398;-75
2024/02/21 02:31:30;;;;;;;;;1.00;1.00;;;;;22.67;43.79;102087.75;6400177;22;45105;-76
2024/02/21 02:33:55;;;;;;;;;1.33;1.00;;;;;22.66;43.34;102083.47;6399266;22;46204;-75
2024/02/21 02:36:20;;;;;;;;;0.67;0.67;;;;;22.65;43.82;102053.44;6400024;22;45280;-75
2024/02/21 02:38:46;;;;;;;;;1.00;1.00;;;;;22.63;43.78;102026.25;6400087;22;45305;-76
2024/02/21 02:41:11;;;;;;;;;2.00;2.00;;;;;22.66;43.19;102025.94;6399966;22;45338;-76
2024/02/21 02:43:39;;;;;;;;;1.00;1.00;;;;;22.65;43.52;102021.59;6370388;22;61615;-75
2024/02/21 02:46:04;;;;;;;;;1.00;1.00;;;;;22.60;43.66;102002.69;6399448;22;45409;-76
2024/02/21 02:48:30;;;;;;;;;1.00;1.00;;;;;22.66;43.88;102009.19;6399491;22;45328;-75
2024/02/21 02:50:55;;;;;;;;;0.00;0.00;;;;;22.64;43.50;102006.66;6399966;22;45356;-75
2024/02/21 02:53:20;;;;;;;;;1.00;1.00;;;;;22.63;43.33;101983.81;6399428;22;46338;-75
2024/02/21 02:55:46;;;;;;;;;1.67;0.00;;;;;22.62;43.95;102001.53;6400716;22;53046;-75
2024/02/21 02:58:11;;;;;;;;;1.33;1.33;;;;;22.60;44.02;101992.91;6400958;22;45151;-75
2024/02/21 03:00:38;;;;;;;;;1.67;1.67;;;;;22.62;43.55;102004.19;6400757;22;45236;-76
2024/02/21 03:03:03;;;;;;;;;2.33;2.00;;;;;22.45;43.63;101970.59;6401019;22;45395;-76
2024/02/21 03:05:29;;;;;;;;;1.00;1.00;;;;;22.50;43.71;101973.59;6401168;22;45315;-76
2024/02/21 03:07:55;;;;;;;;;3.00;2.00;;;;;22.62;43.69;101975.00;6400881;22;45519;-75
2024/02/21 03:10:20;;;;;;;;;1.00;1.00;;;;;22.55;43.64;101968.66;6400667;22;45373;-76
2024/02/21 03:12:46;;;;;;;;;1.00;1.00;;;;;22.62;43.92;101968.88;6400937;22;45287;-75
2024/02/21 03:15:12;;;;;;;;;0.67;0.67;;;;;22.62;43.30;101977.66;6400091;22;45262;-76
2024/02/21 03:17:38;;;;;;;;;0.67;0.67;;;;;22.48;43.35;101960.50;6401337;22;45296;-76
2024/02/21 03:20:10;;;;;;;;;0.67;0.67;;;;;22.63;43.69;101970.53;6400632;22;45438;-75
2024/02/21 03:22:36;;;;;;;;;0.00;0.00;;;;;22.63;43.83;101975.84;6400992;22;45977;-75
2024/02/21 03:25:02;;;;;;;;;1.67;1.67;;;;;22.58;43.26;101951.59;6400842;22;45327;-75
2024/02/21 03:27:27;;;;;;;;;0.67;0.67;;;;;22.50;43.80;101932.00;6400461;22;45286;-75
2024/02/21 03:29:53;;;;;;;;;1.00;1.00;;;;;22.55;43.20;101934.19;6400272;22;45413;-76
2024/02/21 03:32:18;;;;;;;;;1.00;1.00;;;;;22.60;43.62;101937.19;6400790;22;46672;-76
2024/02/21 03:34:44;;;;;;;;;3.00;1.00;;;;;22.57;43.75;101934.84;6400673;22;45655;-75
2024/02/21 03:37:09;;;;;;;;;2.67;0.67;;;;;22.60;43.80;101937.19;6400629;22;45309;-75
2024/02/21 03:39:34;;;;;;;;;1.00;1.00;;;;;22.54;43.67;101919.25;6401093;22;45324;-76
2024/02/21 03:42:04;;;;;;;;;1.00;1.00;;;;;22.62;43.64;101929.06;6400308;22;45973;-75
2024/02/21 03:44:29;;;;;;;;;2.00;1.00;;;;;22.31;43.93;101887.97;6400481;22;45213;-76
2024/02/21 03:46:55;;;;;;;;;2.33;1.33;;;;;22.61;43.33;101933.53;6400483;22;45178;-75
2024/02/21 03:49:21;;;;;;;;;2.33;1.00;;;;;22.55;43.19;101910.31;6400672;22;49843;-76
2024/02/21 03:51:46;;;;;;;;;0.00;0.00;;;;;22.61;43.24;101922.94;6400998;22;45302;-76
2024/02/21 03:54:11;;;;;;;;;1.00;1.00;;;;;22.61;43.03;101922.94;6400884;22;45351;-76
2024/02/21 03:56:39;;;;;;;;;1.00;1.00;;;;;22.59;43.41;101913.47;6400725;22;45321;-76
2024/02/21 03:59:05;;;;;;;;;3.33;1.00;;;;;22.60;43.10;101920.44;6399982;22;45397;-75
2024/02/21 04:01:30;;;;;;;;;2.33;1.00;;;;;22.61;43.31;101924.78;6400702;22;46008;-76
2024/02/21 04:03:56;;;;;;;;;1.00;1.00;;;;;22.62;42.76;101919.31;6400738;22;49554;-76
2024/02/21 04:06:21;;;;;;;;;1.00;1.00;;;;;22.62;43.21;101926.41;6400188;22;45150;-76
2024/02/21 04:08:46;;;;;;;;;1.00;1.00;;;;;22.62;42.98;101927.25;6400708;22;45391;-76
2024/02/21 04:11:12;;;;;;;;;1.00;1.00;;;;;22.62;43.42;101929.06;6400186;22;46938;-75
2024/02/21 04:13:37;;;;;;;;;1.00;1.00;;;;;22.40;43.28;101891.50;6400192;22;45267;-76
2024/02/21 04:16:03;;;;;;;;;3.00;1.00;;;;;22.61;43.32;101922.13;6400090;22;48114;-75
2024/02/21 04:18:28;;;;;;;;;1.00;1.00;;;;;22.61;43.33;101919.47;6400430;22;45463;-75
2024/02/21 04:20:53;;;;;;;;;2.33;1.00;;;;;22.51;43.36;101895.69;6400565;22;45161;-75
2024/02/21 04:23:19;;;;;;;;;1.00;1.00;;;;;22.57;43.57;101900.38;6400450;22;45206;-75
2024/02/21 04:25:44;;;;;;;;;0.67;0.67;;;;;22.61;43.36;101904.38;6400828;22;45259;-75
2024/02/21 04:28:09;;;;;;;;;0.00;0.00;;;;;22.58;43.20;101891.44;6400531;22;45441;-75
2024/02/21 04:30:35;;;;;;;;;2.33;1.00;;;;;22.49;43.31;101873.81;6400383;22;49667;-75
2024/02/21 04:33:00;;;;;;;;;3.00;1.00;;;;;22.61;43.68;101890.28;6399850;22;59803;-76
2024/02/21 04:35:25;;;;;;;;;2.00;1.00;;;;;22.61;43.10;101887.66;6400460;22;45374;-75
2024/02/21 04:37:51;;;;;;;;;1.00;1.00;;;;;22.59;43.39;101889.59;6400480;22;45433;-76
2024/02/21 04:40:16;;;;;;;;;1.00;1.00;;;;;22.45;43.18;101862.72;6400101;22;46218;-75
2024/02/21 04:42:42;;;;;;;;;1.33;1.00;;;;;22.51;43.45;101864.72;6399653;22;45320;-76
2024/02/21 04:45:08;;;;;;;;;1.00;1.00;;;;;22.58;43.71;101869.38;6400704;22;45306;-75
2024/02/21 04:47:34;;;;;;;;;1.00;1.00;;;;;22.60;43.61;101862.94;6400171;22;45321;-76
2024/02/21 04:49:59;;;;;;;;;1.00;1.00;;;;;22.53;43.27;101846.00;6400028;22;46922;-75
2024/02/21 04:52:24;;;;;;;;;0.00;0.00;;;;;22.58;43.05;101851.66;6400396;22;48993;-76
2024/02/21 04:54:50;;;;;;;;;0.00;0.00;;;;;22.59;43.40;101845.34;6400409;22;45291;-75
2024/02/21 04:57:16;;;;;;;;;2.33;1.67;;;;;22.59;43.63;101833.91;6400284;22;45391;-76
2024/02/21 04:59:44;;;;;;;;;1.00;1.00;;;;;22.60;43.17;101840.88;6400480;22;46285;-75
2024/02/21 05:02:09;;;;;;;;;1.00;1.00;;;;;22.59;43.31;101831.25;6400167;22;45277;-75
2024/02/21 05:04:36;;;;;;;;;1.00;0.00;;;;;22.59;43.02;101832.09;6399914;22;56254;-75
2024/02/21 05:07:02;;;;;;;;;1.00;1.00;;;;;22.60;43.09;101832.91;6400559;22;45372;-76
2024/02/21 05:09:27;;;;;;;;;0.33;0.33;;;;;22.44;43.12;101804.50;6399881;22;52295;-75
2024/02/21 05:11:52;;;;;;;;;1.00;1.00;;;;;22.57;43.06;101809.38;6399494;22;45291;-75
2024/02/21 05:14:18;;;;;;;;;0.33;0.33;;;;;22.60;43.62;101831.09;6400232;22;52002;-75
2024/02/21 05:16:43;;;;;;;;;0.67;0.67;;;;;22.60;42.95;101820.50;6399930;22;45390;-75
2024/02/21 05:19:08;;;;;;;;;2.00;2.00;;;;;22.60;43.25;101824.97;6399717;22;47033;-75
2024/02/21 05:21:34;;;;;;;;;0.33;0.33;;;;;22.60;42.94;101811.69;6400089;22;52167;-75
2024/02/21 05:23:59;;;;;;;;;0.00;0.00;;;;;22.48;42.99;101790.75;6400631;22;45246;-75
2024/02/21 05:26:26;;;;;;;;;2.33;1.00;;;;;22.59;42.82;101804.72;6399565;22;45441;-75
2024/02/21 05:28:51;;;;;;;;;1.00;1.00;;;;;22.60;43.39;101806.41;6400421;22;45899;-75
2024/02/21 05:31:21;;;;;;;;;1.00;1.00;;;;;22.51;43.31;101790.44;6399780;22;45422;-76
2024/02/21 05:33:47;;;;;;;;;1.00;1.00;;;;;22.60;42.84;101801.94;6400343;22;45358;-76
2024/02/21 05:36:12;;;;;;;;;1.00;1.00;;;;;22.60;43.56;101809.06;6400392;22;45422;-75
2024/02/21 05:38:38;;;;;;;;;2.67;1.00;;;;;22.61;43.24;101802.78;6399965;22;46880;-75
2024/02/21 05:41:04;;;;;;;;;1.00;1.00;;;;;22.61;43.53;101790.31;6399295;22;45342;-75
2024/02/21 05:43:29;;;;;;;;;2.00;1.00;;;;;22.58;43.09;101790.66;6400586;22;45330;-75
2024/02/21 05:45:54;;;;;;;;;0.67;0.67;;;;;22.60;42.92;101787.84;6400406;22;45384;-75
2024/02/21 05:48:20;;;;;;;;;1.00;1.00;;;;;22.58;43.29;101790.66;6400388;22;45251;-75
2024/02/21 05:50:46;;;;;;;;;1.00;0.67;;;;;22.53;43.14;101771.75;6400491;22;45188;-75
2024/02/21 05:53:11;;;;;;;;;1.00;1.00;;;;;22.58;43.38;101771.25;6400456;22;45168;-75
2024/02/21 05:55:36;;;;;;;;;1.00;1.00;;;;;22.56;43.12;101759.97;6399957;22;45170;-75
2024/02/21 05:58:02;;;;;;;;;0.00;0.00;;;;;22.50;43.40;101746.38;6399729;22;46954;-75
2024/02/21 06:00:27;;;;;;;;;0.00;0.00;;;;;22.56;43.15;101741.41;6400241;22;45239;-76
2024/02/21 06:02:53;;;;;;;;;1.00;1.00;;;;;22.57;43.34;101749.19;6399890;22;45194;-75
2024/02/21 06:05:18;;;;;;;;;1.00;1.00;;;;;22.59;43.21;101756.97;6399841;22;55550;-75
2024/02/21 06:07:43;;;;;;;;;1.00;1.00;;;;;22.54;42.88;101738.91;6399761;22;45323;-75
2024/02/21 06:10:09;;;;;;;;;1.33;0.00;;;;;22.51;43.09;101752.50;6399950;22;45251;-75
2024/02/21 06:12:34;;;;;;;;;2.00;1.00;;;;;22.38;43.26;101729.91;6400286;22;45228;-76
2024/02/21 06:14:59;;;;;;;;;1.00;1.00;;;;;22.57;42.82;101735.94;6400268;22;45406;-76
2024/02/21 06:17:25;;;;;;;;;1.67;0.33;;;;;22.57;43.16;101748.38;6399813;22;46377;-75
2024/02/21 06:19:50;;;;;;;;;1.00;1.00;;;;;22.58;43.23;101742.09;6399668;22;53381;-75
2024/02/21 06:22:15;;;;;;;;;2.00;0.67;;;;;22.29;43.52;101710.53;6400438;22;45556;-75
2024/02/21 06:24:41;;;;;;;;;1.00;1.00;;;;;22.58;43.33;101747.38;6399796;22;45397;-75
2024/02/21 06:27:06;;;;;;;;;0.00;0.00;;;;;22.57;42.79;101751.84;6399149;22;54850;-75
2024/02/21 06:29:32;;;;;;;;;0.67;0.67;;;;;22.51;43.31;101728.63;6399367;22;45311;-74
2024/02/21 06:31:58;;;;;;;;;1.00;1.00;;;;;22.57;42.87;101737.75;6400153;22;45264;-74
2024/02/21 06:34:24;;;;;;;;;1.00;1.00;;;;;22.53;43.14;101726.66;6399553;22;45414;-75
2024/02/21 06:36:49;;;;;;;;;1.00;1.00;;;;;22.54;43.44;101730.13;6398243;22;46923;-75
2024/02/21 06:39:15;;;;;;;;;0.00;0.00;;;;;22.59;43.15;101741.06;6398448;22;45317;-75
2024/02/21 06:41:40;;;;;;;;;0.00;0.00;;;;;22.35;43.32;101682.50;6398721;22;45528;-74
2024/02/21 06:44:06;;;;;;;;;0.00;0.00;;;;;22.52;43.55;101706.41;6398019;22;45566;-76
2024/02/21 06:46:33;;;;;;;;;0.00;0.00;;;;;22.63;43.85;101713.25;6399411;22;45551;-74
2024/02/21 06:49:00;;;;;;;;;2.00;1.00;;;;;22.64;43.40;101704.28;6398847;22;45171;-75
2024/02/21 06:51:25;;;;;;;;;2.00;0.67;;;;;22.65;43.75;101695.34;6399199;22;45235;-75
2024/02/21 06:53:51;;;;;;;;;0.00;0.00;;;;;22.59;44.04;101675.59;6398635;22;45430;-76
2024/02/21 06:56:17;;;;;;;;;0.67;0.67;;;;;22.65;44.09;101676.78;6397967;22;46045;-75
2024/02/21 06:58:42;;;;;;;;;1.00;1.00;;;;;22.53;43.82;101665.66;6398911;22;45386;-75
2024/02/21 07:01:08;;;;;;;;;1.00;1.00;;;;;22.70;43.87;101700.19;6399006;22;45257;-75
2024/02/21 07:03:33;;;;;;;;;1.67;1.00;;;;;22.71;43.99;101704.50;6399223;22;45267;-75
2024/02/21 07:05:58;;;;;;;;;0.00;0.00;;;;;22.69;44.05;101679.94;6399059;22;46051;-75
2024/02/21 07:08:23;;;;;;;;;1.00;1.00;;;;;22.67;43.83;101684.56;6398932;22;45336;-75
2024/02/21 07:10:49;;;;;;;;;0.67;0.67;;;;;22.62;43.84;101647.91;6399544;22;45343;-75
2024/02/21 07:13:15;;;;;;;;;0.00;0.00;;;;;22.69;43.70;101670.13;6399716;22;45241;-75
2024/02/21 07:15:41;;;;;;;;;0.67;0.67;;;;;22.69;44.05;101677.28;6399216;22;47045;-73
2024/02/21 07:18:06;;;;;;;;;0.00;0.00;;;;;22.69;43.47;101666.69;6399524;22;45168;-75
2024/02/21 07:20:33;;;;;;;;;0.00;0.00;;;;;22.59;43.59;101661.50;6399025;22;45155;-73
2024/02/21 07:22:59;;;;;;;;;0.00;0.00;;;;;22.67;43.83;101671.28;6398811;22;45451;-75
2024/02/21 07:25:24;;;;;;;;;0.00;0.00;;;;;22.54;43.74;101645.25;6398976;22;47067;-75
2024/02/21 07:27:50;;;;;;;;;2.67;1.00;;;;;22.66;43.95;101667.00;6399329;22;45177;-75
2024/02/21 07:30:15;;;;;;;;;1.00;1.00;;;;;22.65;43.59;101674.13;6399576;22;45228;-75
2024/02/21 07:32:41;;;;;;;;;2.00;0.00;;;;;22.32;43.67;101595.38;6399453;22;45402;-75
2024/02/21 07:35:10;;;;;;;;;2.33;2.33;;;;;22.61;43.67;101652.38;6398791;22;46265;-75
2024/02/21 07:37:36;;;;;;;;;1.00;1.00;;;;;22.55;43.77;101647.75;6399027;22;45284;-74
2024/02/21 07:40:01;;;;;;;;;0.00;0.00;;;;;22.62;43.92;101647.91;6399546;22;45200;-75
2024/02/21 07:42:27;;;;;;;;;1.67;1.67;;;;;22.63;43.30;101642.47;6401004;22;45240;-75
2024/02/21 07:44:52;;;;;;;;;1.00;1.00;;;;;22.60;43.38;101642.78;6400438;22;52410;-75
2024/02/21 07:47:18;;;;;;;;;1.00;0.67;;;;;22.62;43.90;101638.16;6399947;22;65722;-75
2024/02/21 07:49:44;;;;;;;;;0.00;0.00;;;;;22.63;43.98;101629.22;6400507;22;45280;-75
2024/02/21 07:52:10;;;;;;;;;0.67;0.67;;;;;22.62;43.69;101616.09;6400560;22;45204;-75
2024/02/21 07:54:35;;;;;;;;;0.00;0.00;;;;;22.62;43.64;101634.66;6400346;22;45957;-74
2024/02/21 07:57:00;;;;;;;;;1.00;0.00;;;;;22.52;43.51;101622.41;6397089;22;50947;-75
2024/02/21 07:59:25;;;;;;;;;0.00;0.00;;;;;22.51;43.74;101610.13;6400099;22;45432;-75
2024/02/21 08:01:51;;;;;;;;;1.33;1.00;;;;;22.55;43.39;101604.50;6400274;22;45255;-75
2024/02/21 08:04:16;;;;;;;;;0.00;0.00;;;;;22.55;43.62;101599.19;6399979;22;47362;-75
2024/02/21 08:06:41;;;;;;;;;1.33;0.00;;;;;22.61;43.52;101609.16;6399171;22;50925;-75
2024/02/21 08:09:07;;;;;;;;;2.00;0.00;;;;;22.47;43.80;101568.19;6400431;22;45302;-74
2024/02/21 08:11:32;;;;;;;;;0.67;0.67;;;;;22.57;43.44;101583.94;6400155;22;49637;-75
2024/02/21 08:13:57;;;;;;;;;1.00;1.00;;;;;22.58;43.79;101599.69;6400437;22;46183;-75
2024/02/21 08:16:23;;;;;;;;;0.67;0.67;;;;;22.62;43.48;101606.31;6400070;22;45292;-74
2024/02/21 08:18:48;;;;;;;;;1.00;0.00;;;;;22.51;43.75;101577.47;6400919;22;45381;-75
2024/02/21 08:21:14;;;;;;;;;0.00;0.00;;;;;22.62;43.56;101579.78;6399740;22;45498;-74
2024/02/21 08:23:39;;;;;;;;;0.00;0.00;;;;;22.55;43.76;101562.06;6399923;22;46194;-75
2024/02/21 08:26:05;;;;;;;;;0.00;0.00;;;;;22.60;43.42;101575.66;6400324;22;48706;-75
2024/02/21 08:28:30;;;;;;;;;1.00;1.00;;;;;22.62;43.42;101573.66;6400314;22;45339;-75
2024/02/21 08:30:55;;;;;;;;;1.00;1.00;;;;;22.53;43.25;101548.97;6400227;22;45426;-75
2024/02/21 08:33:24;;;;;;;;;1.00;1.00;;;;;22.59;43.53;101558.06;6399874;22;49404;-75
2024/02/21 08:35:50;;;;;;;;;0.00;0.00;;;;;22.62;43.10;101552.44;6399322;22;45302;-74
2024/02/21 08:38:16;;;;;;;;;1.00;0.00;;;;;22.62;43.61;101547.13;6400755;22;45624;-74
2024/02/21 08:40:41;;;;;;;;;0.00;0.00;;;;;22.26;43.39;101504.06;6399786;22;45301;-74
2024/02/21 08:43:06;;;;;;;;;0.00;0.00;;;;;22.62;43.39;101547.97;6399764;22;49131;-75
2024/02/21 08:45:31;;;;;;;;;0.33;0.33;;;;;22.61;43.44;101546.31;6400355;22;45318;-75
2024/02/21 08:47:57;;;;;;;;;1.33;1.33;;;;;22.50;43.06;101528.94;6400610;22;45318;-74
2024/02/21 08:50:22;;;;;;;;;1.00;1.00;;;;;22.50;43.36;101515.66;6399657;22;47468;-75
2024/02/21 08:52:47;;;;;;;;;1.00;1.00;;;;;22.55;43.22;101517.81;6400013;22;45230;-74
2024/02/21 08:55:13;;;;;;;;;0.67;0.00;;;;;22.61;43.77;101537.53;6400216;22;45343;-74
2024/02/21 08:57:38;;;;;;;;;1.00;1.00;;;;;22.47;43.34;101512.50;6400275;22;45271;-75
2024/02/21 09:00:09;;;;;;;;;1.67;1.00;;;;;22.61;43.67;101521.63;6399809;22;49832;-75
2024/02/21 09:02:43;;;;;;;;;0.00;0.00;;;;;22.57;43.33;101513.16;6399591;22;47145;-74
2024/02/21 09:05:08;;;;;;;;;1.00;1.00;;;;;22.60;43.63;101515.50;6399294;22;45397;-75
2024/02/21 09:07:34;;;;;;;;;1.33;0.67;;;;;22.60;43.17;101512.00;6400281;22;45386;-75
2024/02/21 09:09:59;;;;;;;;;1.00;1.00;;;;;22.23;42.82;101434.66;6399930;22;45385;-74
2024/02/21 09:12:25;;;;;;;;;1.00;1.00;;;;;22.60;43.63;101494.28;6371156;22;47594;-74
2024/02/21 09:14:50;;;;;;;;;0.00;0.00;;;;;22.59;42.97;101492.59;6399954;22;45239;-75
2024/02/21 09:17:20;;;;;;;;;0.00;0.00;;;;;22.60;43.60;101494.28;6400561;22;45205;-74
2024/02/21 09:19:46;;;;;;;;;1.00;0.00;;;;;22.60;43.68;101490.78;6399359;22;45294;-74
2024/02/21 09:22:11;;;;;;;;;0.00;0.00;;;;;22.51;43.31;101474.03;6400065;22;46149;-75
2024/02/21 09:24:36;;;;;;;;;1.00;1.00;;;;;22.40;42.97;101441.56;6399480;22;55298;-75
2024/02/21 09:27:02;;;;;;;;;2.00;0.00;;;;;22.59;43.08;101471.38;6399952;22;45315;-75
2024/02/21 09:29:27;;;;;;;;;0.00;0.00;;;;;22.50;43.62;101449.38;6400132;22;45169;-75
2024/02/21 09:31:53;;;;;;;;;2.00;2.00;;;;;22.60;43.45;101465.09;6399581;22;46293;-76
2024/02/21 09:34:18;;;;;;;;;1.00;1.00;;;;;22.48;42.93;101431.97;6398921;22;54857;-75
2024/02/21 09:36:44;;;;;;;;;0.00;0.00;;;;;22.58;43.29;101440.56;6400068;22;45214;-74
2024/02/21 09:39:11;;;;;;;;;0.00;0.00;;;;;22.60;43.26;101438.56;6400373;22;45432;-75
2024/02/21 09:41:43;;;;;;;;;0.67;0.67;;;;;22.51;43.31;101418.34;6399281;22;46926;-75
2024/02/21 09:44:10;;;;;;;;;0.00;0.00;;;;;22.59;42.87;101425.47;6399644;22;45248;-75
2024/02/21 09:46:50;;;;;;;;;1.67;1.00;;;;;22.60;43.23;101417.34;6400211;22;45296;-74
2024/02/21 09:49:37;;;;;;;;;0.00;0.00;;;;;22.60;43.22;101408.56;6399723;22;45409;-75
2024/02/21 09:52:06;;;;;;;;;1.33;0.00;;;;;22.57;43.48;101398.28;6399560;22;46869;-74
2024/02/21 09:54:33;;;;;;;;;0.00;0.00;;;;;22.56;43.19;101389.50;6399450;22;45300;-75
2024/02/21 09:57:03;;;;;;;;;1.00;1.00;;;;;22.61;43.07;101402.28;6399466;22;45244;-75
2024/02/21 09:59:31;;;;;;;;;0.00;0.00;;;;;22.38;43.10;101364.03;6400157;22;45302;-75
2024/02/21 10:01:56;;;;;;;;;1.00;1.00;;;;;22.50;43.46;101372.47;6398900;22;46271;-74
2024/02/21 10:04:21;;;;;;;;;0.00;0.00;;;;;22.60;43.14;101382.88;6398116;22;45328;-75
2024/02/21 10:06:47;;;;;;;;;2.00;0.00;;;;;22.60;42.89;101382.03;6384138;22;54025;-75
2024/02/21 10:09:29;;;;;;;;;0.33;0.33;;;;;22.29;43.16;101317.34;6383906;22;45339;-75
2024/02/21 10:11:56;;;;;;;;;0.00;0.00;;;;;22.59;42.87;101370.59;6383777;22;45930;-74
2024/02/21 10:14:21;;;;;;;;;1.00;0.00;;;;;22.60;43.41;101358.19;6383709;22;45316;-75
2024/02/21 10:17:00;;;;;;;;;0.00;0.00;;;;;22.60;42.94;101356.34;6355038;22;45633;-75
2024/02/21 10:19:25;;;;;;;;;1.00;1.00;;;;;22.56;43.30;101341.78;6384776;22;45542;-75
2024/02/21 10:22:01;;;;;;;;;1.00;1.00;;;;;22.47;43.16;101316.28;6383706;22;46121;-75
2024/02/21 10:24:28;;;;;;;;;0.00;0.00;;;;;22.53;43.08;101328.88;6383935;22;45312;-75
2024/02/21 10:27:10;;;;;;;;;1.33;1.00;;;;;22.60;43.15;101339.63;6384239;22;45283;-75
2024/02/21 10:29:36;;;;;;;;;1.00;1.00;;;;;22.55;43.18;101331.34;6384657;22;45576;-74
2024/02/21 10:32:10;;;;;;;;;1.00;1.00;;;;;22.60;43.10;101331.66;6383420;22;46226;-75
2024/02/21 10:34:36;;;;;;;;;0.33;0.33;;;;;22.61;43.22;101343.94;6384124;22;45389;-75
2024/02/21 10:37:06;;;;;;;;;3.00;1.33;;;;;22.59;43.23;101327.34;6384153;22;45320;-75
2024/02/21 10:39:33;;;;;;;;;0.33;0.33;;;;;22.51;42.74;101326.38;6354688;22;45508;-75
2024/02/21 10:42:03;;;;;;;;;1.00;1.00;;;;;22.58;43.21;101323.88;6383878;22;45647;-75
2024/02/21 10:44:32;;;;;;;;;2.00;1.00;;;;;22.59;42.78;101317.56;6383963;22;45662;-75
2024/02/21 10:46:58;;;;;;;;;2.00;0.00;;;;;22.50;42.91;101313.31;6383285;22;45441;-75
2024/02/21 10:49:26;;;;;;;;;1.00;1.00;;;;;22.57;43.34;101303.66;6383806;22;45549;-76
2024/02/21 10:52:01;;;;;;;;;0.67;0.67;;;;;22.57;43.16;101302.81;6383039;22;46288;-75
2024/02/21 10:54:36;;;;;;;;;0.00;0.00;;;;;22.57;43.12;101300.16;6383405;22;45583;-76
2024/02/21 10:57:03;;;;;;;;;0.00;0.00;;;;;22.47;42.87;101279.19;6383861;22;45562;-76
2024/02/21 10:59:32;;;;;;;;;0.00;0.00;;;;;22.56;42.61;101285.28;6383254;22;45388;-75
2024/02/21 11:01:57;;;;;;;;;0.67;0.67;;;;;22.55;42.68;101276.50;6382971;22;46266;-75
2024/02/21 11:04:23;;;;;;;;;0.00;0.00;;;;;22.47;42.58;101260.63;6383896;22;45699;-75
2024/02/21 11:06:50;;;;;;;;;0.00;0.00;;;;;22.46;42.82;101249.19;6383685;22;45346;-75
2024/02/21 11:09:16;;;;;;;;;1.67;1.00;;;;;22.56;43.03;101258.75;6383939;22;45626;-74
2024/02/21 11:11:43;;;;;;;;;1.00;0.00;;;;;22.49;42.79;101229.44;6382634;22;47046;-75
2024/02/21 11:14:09;;;;;;;;;0.00;0.00;;;;;22.55;42.64;101244.66;6382577;22;45412;-75
2024/02/21 11:16:39;;;;;;;;;0.00;0.00;;;;;22.55;42.67;101239.38;6385338;22;45287;-75
2024/02/21 11:19:26;;;;;;;;;0.33;0.33;;;;;22.55;42.79;101226.09;6385295;22;45977;-75